Time;durP1;ratioP1;P1;durP2;ratioP2;P2;SDS_P1;SDS_P2;PMS_P1;PMS_P2;Temp;Humidity;BMP_temperature;BMP_pressure;BME280_temperature;BME280_humidity;BME280_pressure;Samples;Min_cycle;Max_cycle;Signal;HPM_P1;HPM_P2
2022/07/25 00:02:12;;;;;;;3.22;2.78;;;24.50;64.60;;;;;;10374447;28;20025;-53
2022/07/25 00:07:13;;;;;;;3.30;2.80;;;24.50;64.50;;;;;;10369307;28;20113;-51
2022/07/25 00:12:13;;;;;;;3.63;3.03;;;24.50;64.50;;;;;;10370294;28;20030;-53
2022/07/25 00:17:14;;;;;;;4.20;3.47;;;24.50;64.60;;;;;;10368862;28;20038;-49
2022/07/25 00:22:15;;;;;;;3.20;2.40;;;24.50;64.50;;;;;;10376151;28;20034;-50
2022/07/25 00:27:16;;;;;;;3.40;3.10;;;24.50;64.50;;;;;;10369890;28;20033;-52
2022/07/25 00:32:16;;;;;;;3.00;2.42;;;24.50;64.50;;;;;;10401909;28;20025;-51
2022/07/25 00:37:17;;;;;;;3.05;2.30;;;24.50;64.40;;;;;;10395558;28;20022;-52
2022/07/25 00:42:18;;;;;;;3.42;2.50;;;24.50;64.40;;;;;;10410061;28;20055;-51
2022/07/25 00:47:19;;;;;;;3.40;2.72;;;24.50;64.50;;;;;;10409739;28;20041;-53
2022/07/25 00:52:20;;;;;;;4.05;2.85;;;24.50;64.60;;;;;;10374157;28;20026;-51
2022/07/25 00:57:20;;;;;;;3.17;2.47;;;24.50;64.50;;;;;;10368212;28;20034;-53
2022/07/25 01:02:21;;;;;;;3.63;2.70;;;24.50;64.40;;;;;;10380172;28;20033;-51
2022/07/25 01:07:22;;;;;;;3.20;2.83;;;24.50;64.40;;;;;;10368598;28;20497;-51
2022/07/25 01:12:23;;;;;;;3.50;3.08;;;24.50;64.50;;;;;;10367692;28;20441;-51
2022/07/25 01:17:24;;;;;;;3.47;2.60;;;24.50;64.50;;;;;;10367723;28;20101;-50
2022/07/25 01:22:24;;;;;;;2.92;2.33;;;24.50;64.50;;;;;;10384956;28;20029;-52
2022/07/25 01:27:25;;;;;;;2.97;2.47;;;24.50;64.50;;;;;;10408378;28;20117;-51
2022/07/25 01:32:26;;;;;;;4.10;2.85;;;24.50;64.50;;;;;;10382535;28;20087;-50
2022/07/25 01:37:27;;;;;;;4.20;3.15;;;24.50;64.60;;;;;;10366968;28;20034;-51
2022/07/25 01:42:27;;;;;;;3.85;2.75;;;24.40;64.50;;;;;;10378968;28;20042;-50
2022/07/25 01:47:29;;;;;;;3.20;2.75;;;24.40;64.50;;;;;;10367167;28;20379;-52
2022/07/25 01:52:30;;;;;;;4.18;3.55;;;24.40;64.40;;;;;;10365614;28;20034;-52
2022/07/25 01:57:31;;;;;;;4.35;2.97;;;24.40;64.70;;;;;;10365562;28;20045;-51
2022/07/25 02:02:32;;;;;;;3.00;2.70;;;24.40;64.70;;;;;;10366661;28;20018;-53
2022/07/25 02:07:32;;;;;;;3.53;2.92;;;24.40;65.20;;;;;;10365263;28;20038;-51
2022/07/25 02:12:34;;;;;;;3.38;2.75;;;24.40;64.60;;;;;;10366524;28;20037;-53
2022/07/25 02:17:34;;;;;;;3.45;2.58;;;24.40;64.50;;;;;;10366074;28;20120;-52
2022/07/25 02:22:35;;;;;;;3.50;2.78;;;24.40;64.60;;;;;;10380954;28;20103;-50
2022/07/25 02:27:36;;;;;;;3.70;3.05;;;24.40;64.60;;;;;;10375881;28;20470;-57
2022/07/25 02:32:36;;;;;;;4.10;3.00;;;24.40;64.60;;;;;;10386834;28;20030;-53
2022/07/25 02:37:37;;;;;;;3.15;2.60;;;24.40;64.60;;;;;;10389754;28;20022;-51
2022/07/25 02:42:38;;;;;;;4.75;3.33;;;24.40;64.60;;;;;;10414359;28;20049;-53
2022/07/25 02:47:39;;;;;;;3.33;2.95;;;24.40;64.60;;;;;;10375609;28;20034;-51
2022/07/25 02:52:39;;;;;;;3.25;2.80;;;24.40;64.60;;;;;;10371910;28;20116;-51
2022/07/25 02:57:40;;;;;;;3.97;3.20;;;24.40;64.60;;;;;;10372617;28;20038;-51
2022/07/25 03:02:41;;;;;;;3.85;3.05;;;24.40;64.50;;;;;;10373700;28;20030;-52
2022/07/25 03:07:44;;;;;;;3.90;3.30;;;24.40;64.50;;;;;;10383187;28;20382;-51
2022/07/25 03:12:45;;;;;;;3.35;2.85;;;24.30;64.50;;;;;;10371156;28;20428;-52
2022/07/25 03:17:45;;;;;;;4.43;3.20;;;24.30;64.50;;;;;;10370712;28;20046;-53
2022/07/25 03:22:46;;;;;;;3.78;3.17;;;24.30;64.50;;;;;;10384926;28;20017;-50
2022/07/25 03:27:47;;;;;;;3.50;2.65;;;24.40;64.50;;;;;;10414735;28;20039;-51
2022/07/25 03:32:48;;;;;;;4.63;3.38;;;24.30;64.50;;;;;;10380159;28;20411;-52
2022/07/25 03:37:48;;;;;;;4.30;3.90;;;24.30;64.50;;;;;;10394613;28;20117;-53
2022/07/25 03:42:49;;;;;;;4.03;3.50;;;24.30;64.50;;;;;;10368188;28;20050;-52
2022/07/25 03:47:50;;;;;;;3.95;3.50;;;24.30;64.50;;;;;;10382093;28;20419;-53
2022/07/25 03:52:50;;;;;;;3.08;2.78;;;24.30;64.50;;;;;;10367934;28;20030;-52
2022/07/25 03:57:51;;;;;;;3.63;3.33;;;24.30;64.50;;;;;;10371102;28;20026;-53
2022/07/25 04:02:52;;;;;;;4.07;3.67;;;24.30;64.50;;;;;;10382039;28;20047;-52
2022/07/25 04:07:53;;;;;;;5.75;3.30;;;24.30;64.50;;;;;;10374437;28;20036;-52
2022/07/25 04:12:53;;;;;;;4.25;3.67;;;24.30;64.50;;;;;;10378801;28;20112;-50
2022/07/25 04:17:54;;;;;;;4.80;3.97;;;24.30;64.50;;;;;;10381900;28;20367;-52
2022/07/25 04:22:55;;;;;;;4.20;3.72;;;24.30;64.50;;;;;;10383481;28;20100;-52
2022/07/25 04:27:55;;;;;;;3.45;2.90;;;24.30;64.50;;;;;;10414044;28;20017;-51
2022/07/25 04:32:56;;;;;;;3.67;3.17;;;24.30;64.40;;;;;;10414186;28;20110;-53
2022/07/25 04:37:57;;;;;;;4.30;3.90;;;24.30;64.50;;;;;;10410343;28;20099;-52
2022/07/25 04:42:57;;;;;;;4.35;3.78;;;24.30;64.40;;;;;;10399486;28;20167;-48
2022/07/25 04:47:58;;;;;;;4.65;3.90;;;24.30;64.30;;;;;;10384831;28;20030;-53
2022/07/25 04:52:59;;;;;;;6.13;4.30;;;24.30;64.70;;;;;;10380699;28;20128;-53
2022/07/25 04:58:00;;;;;;;8.50;4.60;;;24.40;64.40;;;;;;10387967;28;20030;-54
2022/07/25 05:03:00;;;;;;;9.15;5.35;;;24.40;64.80;;;;;;10386102;28;20036;-54
2022/07/25 05:08:02;;;;;;;8.35;4.95;;;24.40;65.30;;;;;;10400557;28;20162;-54
2022/07/25 05:13:03;;;;;;;6.07;4.88;;;24.50;65.40;;;;;;10409607;28;20373;-54
2022/07/25 05:18:04;;;;;;;9.77;5.72;;;24.50;65.40;;;;;;10409263;28;20033;-53
2022/07/25 05:23:04;;;;;;;7.45;4.93;;;24.50;65.40;;;;;;10392194;28;20441;-56
2022/07/25 05:28:05;;;;;;;10.30;5.93;;;24.50;65.50;;;;;;10367722;28;20125;-53
2022/07/25 05:33:06;;;;;;;14.82;6.72;;;24.50;65.30;;;;;;10383639;28;20026;-53
2022/07/25 05:38:07;;;;;;;9.38;6.78;;;24.50;65.50;;;;;;10384437;28;20477;-52
2022/07/25 05:43:08;;;;;;;12.57;8.32;;;24.50;65.60;;;;;;10379470;28;20049;-53
2022/07/25 05:48:08;;;;;;;14.10;8.65;;;24.50;65.60;;;;;;10367521;28;20531;-52
2022/07/25 05:53:09;;;;;;;13.70;8.15;;;24.40;65.40;;;;;;10368014;28;20037;-51
2022/07/25 05:58:10;;;;;;;15.35;8.63;;;24.50;65.60;;;;;;10387399;28;20041;-53
2022/07/25 06:03:11;;;;;;;15.45;9.18;;;24.50;65.00;;;;;;10395824;28;20040;-52
2022/07/25 06:08:15;;;;;;;11.18;8.73;;;24.50;65.30;;;;;;10381446;28;20034;-53
2022/07/25 06:13:16;;;;;;;15.30;9.35;;;24.50;64.90;;;;;;10388656;28;21162;-51
2022/07/25 06:18:17;;;;;;;14.60;9.20;;;24.50;65.10;;;;;;10371586;28;20490;-50
2022/07/25 06:23:18;;;;;;;15.00;8.75;;;24.50;65.00;;;;;;10394189;28;20043;-51
2022/07/25 06:28:18;;;;;;;17.38;8.82;;;24.50;65.30;;;;;;10391075;28;20116;-53
2022/07/25 06:33:19;;;;;;;14.27;8.88;;;24.50;65.30;;;;;;10375567;28;20420;-53
2022/07/25 06:38:20;;;;;;;16.77;9.75;;;24.50;65.10;;;;;;10374213;28;20025;-54
2022/07/25 06:43:20;;;;;;;13.93;8.75;;;24.50;65.20;;;;;;10373891;28;20061;-52
2022/07/25 06:48:23;;;;;;;15.93;10.25;;;24.40;65.00;;;;;;10372691;28;20528;-53
2022/07/25 06:53:23;;;;;;;10.98;9.32;;;24.50;65.20;;;;;;10373937;28;20097;-53
2022/07/25 06:58:24;;;;;;;12.50;8.27;;;24.50;65.10;;;;;;10371987;28;20037;-53
2022/07/25 07:03:25;;;;;;;10.30;8.00;;;24.50;65.00;;;;;;10379792;28;20037;-54
2022/07/25 07:08:26;;;;;;;12.10;8.18;;;24.50;64.90;;;;;;10377955;28;20042;-55
2022/07/25 07:13:26;;;;;;;10.60;7.75;;;24.50;64.80;;;;;;10373460;28;20044;-54
2022/07/25 07:18:27;;;;;;;10.27;7.32;;;24.50;64.60;;;;;;10391952;28;20030;-54
2022/07/25 07:23:28;;;;;;;11.05;7.55;;;24.50;64.70;;;;;;10391198;28;20036;-54
2022/07/25 07:28:28;;;;;;;14.15;7.75;;;24.50;64.60;;;;;;10380878;28;20045;-51
2022/07/25 07:33:29;;;;;;;16.98;7.35;;;24.50;64.40;;;;;;10389833;28;20489;-54
2022/07/25 07:38:30;;;;;;;18.48;7.80;;;24.40;64.30;;;;;;10370669;28;20517;-54
2022/07/25 07:43:31;;;;;;;14.40;6.50;;;24.50;64.10;;;;;;10371623;28;20099;-54
2022/07/25 07:48:32;;;;;;;12.88;6.45;;;24.50;64.10;;;;;;10370618;28;20650;-55
2022/07/25 07:58:52;;;;;;;12.07;4.80;;;24.40;62.10;;;;;;10396050;28;20037;-53
2022/07/25 08:03:53;;;;;;;8.95;5.40;;;24.40;62.60;;;;;;10410331;28;20452;-52
2022/07/25 08:08:54;;;;;;;11.52;5.35;;;24.40;62.80;;;;;;10382704;28;20521;-50
2022/07/25 08:13:55;;;;;;;11.02;5.03;;;24.40;62.60;;;;;;10378171;28;20394;-51
2022/07/25 08:18:55;;;;;;;8.93;5.00;;;24.40;62.30;;;;;;10368984;28;20129;-52
2022/07/25 08:23:56;;;;;;;7.22;4.32;;;24.50;62.50;;;;;;10379992;28;20045;-53
2022/07/25 08:28:57;;;;;;;7.45;3.97;;;24.50;62.60;;;;;;10412795;28;20071;-53
2022/07/25 08:33:58;;;;;;;6.80;4.97;;;24.40;62.60;;;;;;10369054;28;20105;-53
2022/07/25 08:38:58;;;;;;;6.28;4.35;;;24.40;62.60;;;;;;10367129;28;20050;-53
2022/07/25 08:44:01;;;;;;;6.72;4.82;;;24.40;62.60;;;;;;10367940;28;20096;-51
2022/07/25 08:49:02;;;;;;;6.88;4.00;;;24.40;62.60;;;;;;10363749;28;20061;-53
2022/07/25 08:54:04;;;;;;;7.85;4.65;;;24.50;62.70;;;;;;10366936;28;20029;-52
2022/07/25 08:59:05;;;;;;;6.47;4.30;;;24.50;66.70;;;;;;10367335;28;20069;-52
2022/07/25 09:04:10;;;;;;;7.07;4.18;;;24.50;66.60;;;;;;10367777;28;20116;-53
2022/07/25 09:09:11;;;;;;;8.70;4.88;;;24.50;66.60;;;;;;10367728;28;20685;-53
2022/07/25 09:14:12;;;;;;;6.95;4.15;;;24.50;66.50;;;;;;10367152;28;20034;-52
2022/07/25 09:19:19;;;;;;;6.30;3.92;;;24.50;66.50;;;;;;10366057;28;20401;-54
2022/07/25 09:24:21;;;;;;;4.45;3.25;;;24.50;66.20;;;;;;10373108;28;20041;-53
2022/07/25 09:29:29;;;;;;;4.35;3.65;;;24.50;66.00;;;;;;10380531;28;20030;-53
2022/07/25 09:34:38;;;;;;;4.30;3.28;;;24.50;65.80;;;;;;10365933;28;20393;-53
2022/07/25 09:39:47;;;;;;;;;;;24.50;65.50;;;;;;10365555;28;20088;-53
2022/07/25 09:45:12;;;;;;;5.57;3.23;;;24.50;64.50;;;;;;10365056;28;19918;-54
2022/07/25 09:50:13;;;;;;;4.47;3.63;;;24.50;64.20;;;;;;10366327;28;20279;-51
2022/07/25 09:55:15;;;;;;;4.03;3.15;;;24.50;64.20;;;;;;10366640;28;20116;-55
2022/07/25 10:00:22;;;;;;;5.00;2.55;;;24.50;64.10;;;;;;10366625;28;20029;-55
2022/07/25 10:06:07;;;;;;;4.38;3.38;;;24.50;64.10;;;;;;10366790;28;20109;-53
2022/07/25 10:11:18;;;;;;;3.10;2.38;;;24.60;64.20;;;;;;10365824;28;20461;-54
2022/07/25 10:16:25;;;;;;;3.28;2.15;;;24.60;63.90;;;;;;10365960;28;20381;-53
2022/07/25 10:21:27;;;;;;;6.53;2.50;;;24.60;63.90;;;;;;10372285;28;20061;-54
2022/07/25 10:26:29;;;;;;;6.85;2.53;;;24.60;64.20;;;;;;10388557;28;20492;-55
2022/07/25 10:31:39;;;;;;;4.72;2.47;;;24.60;64.30;;;;;;10388491;28;20061;-54
2022/07/25 10:36:53;;;;;;;5.50;2.53;;;24.60;64.40;;;;;;10365214;28;20037;-54
2022/07/25 10:42:01;;;;;;;5.40;3.00;;;24.60;64.30;;;;;;10371176;28;20041;-53
2022/07/25 10:47:07;;;;;;;4.63;2.58;;;24.60;64.40;;;;;;10373337;28;20112;-60
2022/07/25 10:52:16;;;;;;;7.00;3.03;;;24.60;64.50;;;;;;10381919;28;20033;-54
2022/07/25 10:57:17;;;;;;;7.28;2.35;;;24.60;64.60;;;;;;10377716;28;20042;-58
2022/07/25 11:02:18;;;;;;;7.78;3.40;;;24.60;64.60;;;;;;10372190;28;20029;-56
2022/07/25 11:07:19;;;;;;;6.90;3.13;;;24.60;65.00;;;;;;10373248;28;20030;-55
2022/07/25 11:12:19;;;;;;;6.13;3.47;;;24.60;65.60;;;;;;10372466;28;20104;-56
2022/07/25 11:17:22;;;;;;;4.50;2.58;;;24.60;65.30;;;;;;10371272;28;20026;-55
2022/07/25 11:22:25;;;;;;;7.05;3.17;;;24.60;64.90;;;;;;10381407;28;20030;-56
2022/07/25 11:27:30;;;;;;;5.45;2.38;;;24.70;66.10;;;;;;10398265;28;20026;-56
2022/07/25 11:32:41;;;;;;;7.43;3.05;;;24.70;65.10;;;;;;10371263;28;20537;-55
2022/07/25 11:37:47;;;;;;;9.55;2.97;;;24.70;66.10;;;;;;10366609;28;20033;-57
2022/07/25 11:42:54;;;;;;;6.32;2.80;;;24.80;65.90;;;;;;10377093;28;20136;-55
2022/07/25 11:48:07;;;;;;;6.32;2.67;;;24.70;65.60;;;;;;10393413;28;20523;-54
2022/07/25 11:53:13;;;;;;;10.35;3.15;;;24.70;66.00;;;;;;10392543;28;20037;-54
2022/07/25 11:58:17;;;;;;;6.97;3.13;;;24.70;65.80;;;;;;10392955;28;20493;-55
2022/07/25 12:03:21;;;;;;;4.63;2.78;;;24.70;66.10;;;;;;10369990;28;20030;-56
2022/07/25 12:08:22;;;;;;;3.25;2.20;;;24.80;65.90;;;;;;10381964;28;20373;-53
2022/07/25 12:13:29;;;;;;;8.10;3.17;;;24.70;65.60;;;;;;10370781;28;20036;-54
2022/07/25 12:18:29;;;;;;;7.82;2.90;;;24.70;65.70;;;;;;10369418;28;20030;-53
2022/07/25 12:23:30;;;;;;;9.63;2.70;;;24.70;65.20;;;;;;10376263;28;20113;-53
2022/07/25 12:28:31;;;;;;;6.53;3.28;;;24.60;65.00;;;;;;10381897;28;20033;-55
2022/07/25 12:33:32;;;;;;;8.02;3.67;;;24.60;64.30;;;;;;10369056;28;20033;-53
2022/07/25 12:38:33;;;;;;;7.38;3.00;;;24.60;63.70;;;;;;10366962;28;20019;-52
2022/07/25 12:43:34;;;;;;;8.80;3.05;;;24.60;63.60;;;;;;10367359;28;20042;-53
2022/07/25 12:48:36;;;;;;;4.75;2.85;;;24.60;63.50;;;;;;10367567;28;20030;-54
2022/07/25 12:53:37;;;;;;;6.50;2.60;;;24.60;63.40;;;;;;10368408;28;20034;-55
2022/07/25 12:58:37;;;;;;;7.18;2.70;;;24.60;63.20;;;;;;10366682;28;20022;-54
2022/07/25 13:03:38;;;;;;;6.60;2.80;;;24.60;63.30;;;;;;10379063;28;20029;-55
2022/07/25 13:08:39;;;;;;;5.93;2.80;;;24.60;63.30;;;;;;10379599;28;20029;-54
2022/07/25 13:13:39;;;;;;;7.22;2.90;;;24.60;63.30;;;;;;10366916;28;20033;-53
2022/07/25 13:18:40;;;;;;;3.92;2.75;;;24.50;63.00;;;;;;10368390;28;20033;-53
2022/07/25 13:23:41;;;;;;;9.40;3.50;;;24.60;63.20;;;;;;10392916;28;20384;-54
2022/07/25 13:28:42;;;;;;;4.32;2.67;;;24.60;63.20;;;;;;10399035;28;20111;-52
2022/07/25 13:33:43;;;;;;;4.10;2.42;;;24.60;63.20;;;;;;10365289;28;20468;-51
2022/07/25 13:38:45;;;;;;;4.18;2.40;;;24.60;63.20;;;;;;10366406;28;20037;-55
2022/07/25 13:43:46;;;;;;;9.52;3.40;;;24.60;63.20;;;;;;10366366;28;20096;-53
2022/07/25 13:48:47;;;;;;;4.07;2.60;;;24.60;63.10;;;;;;10366348;28;20497;-54
2022/07/25 13:53:48;;;;;;;3.92;2.90;;;24.60;63.20;;;;;;10364989;28;20129;-53
2022/07/25 13:58:48;;;;;;;4.28;2.80;;;24.60;63.10;;;;;;10365966;28;20030;-53
2022/07/25 14:03:49;;;;;;;6.70;2.70;;;24.60;63.10;;;;;;10364942;28;20033;-54
2022/07/25 14:08:50;;;;;;;3.88;2.47;;;24.60;63.10;;;;;;10364698;28;20045;-54
2022/07/25 14:13:50;;;;;;;4.53;3.05;;;24.60;62.80;;;;;;10367263;28;20485;-53
2022/07/25 14:18:53;;;;;;;5.22;2.97;;;24.70;62.80;;;;;;10386298;28;20072;-52
2022/07/25 14:23:53;;;;;;;6.57;3.03;;;24.60;62.80;;;;;;10397152;28;20029;-54
2022/07/25 14:28:55;;;;;;;5.70;2.72;;;24.60;62.60;;;;;;10417269;28;20026;-54
2022/07/25 14:33:56;;;;;;;5.88;2.75;;;24.60;62.70;;;;;;10376624;28;20025;-54
2022/07/25 14:38:58;;;;;;;7.78;2.83;;;24.60;62.90;;;;;;10414009;28;20360;-53
2022/07/25 14:43:59;;;;;;;8.10;2.83;;;24.60;62.80;;;;;;10399453;28;20057;-54
2022/07/25 14:49:00;;;;;;;5.50;3.08;;;24.60;62.50;;;;;;10400041;28;20045;-52
2022/07/25 14:54:00;;;;;;;7.38;2.80;;;24.60;62.40;;;;;;10398598;28;20037;-54
2022/07/25 14:59:03;;;;;;;5.90;2.90;;;24.60;62.20;;;;;;10401649;28;20109;-54
2022/07/25 15:04:04;;;;;;;5.63;2.80;;;24.60;61.70;;;;;;10371244;28;20018;-53
2022/07/25 15:09:05;;;;;;;11.90;3.35;;;24.70;61.70;;;;;;10384055;28;20026;-53
2022/07/25 15:14:06;;;;;;;10.73;3.42;;;24.70;61.20;;;;;;10371802;28;20310;-52
2022/07/25 15:19:06;;;;;;;16.00;3.88;;;24.70;61.50;;;;;;10390272;28;20543;-52
2022/07/25 15:24:07;;;;;;;9.73;3.03;;;24.70;61.50;;;;;;10394130;28;20022;-53
2022/07/25 15:29:09;;;;;;;11.73;2.67;;;24.60;61.40;;;;;;10391961;28;20397;-49
2022/07/25 15:34:10;;;;;;;9.48;3.67;;;24.60;61.10;;;;;;10378296;28;20325;-53
2022/07/25 15:39:10;;;;;;;6.60;2.35;;;24.70;61.10;;;;;;10360503;28;20039;-48
2022/07/25 15:44:11;;;;;;;9.05;2.13;;;24.70;60.90;;;;;;10395091;28;20065;-56
2022/07/25 15:49:14;;;;;;;10.60;2.50;;;24.60;60.70;;;;;;10381515;28;20105;-55
2022/07/25 15:54:14;;;;;;;10.73;2.88;;;24.60;60.00;;;;;;10378255;28;20470;-56
2022/07/25 15:59:15;;;;;;;7.22;2.67;;;24.70;60.00;;;;;;10371294;28;20104;-56
2022/07/25 16:04:16;;;;;;;7.53;2.13;;;24.60;60.30;;;;;;10377637;28;20036;-54
2022/07/25 16:09:18;;;;;;;90.60;77.03;;;24.70;58.80;;;;;;10389260;28;20369;-55
2022/07/25 16:14:18;;;;;;;19.77;15.70;;;24.90;61.50;;;;;;10395100;28;20065;-56
2022/07/25 16:19:19;;;;;;;15.82;8.70;;;24.80;60.10;;;;;;10383764;28;20187;-53
2022/07/25 16:24:20;;;;;;;12.40;3.75;;;24.70;58.90;;;;;;10383655;28;20377;-55
2022/07/25 16:29:21;;;;;;;10.02;4.18;;;24.70;56.70;;;;;;10385437;28;20385;-55
2022/07/25 16:34:23;;;;;;;6.95;2.60;;;24.80;59.70;;;;;;10370308;28;20120;-56
2022/07/25 16:39:23;;;;;;;9.50;3.60;;;24.80;59.10;;;;;;10368461;28;20060;-57
2022/07/25 16:44:24;;;;;;;7.15;2.20;;;24.80;58.60;;;;;;10369612;28;20046;-55
2022/07/25 16:49:25;;;;;;;7.80;2.15;;;24.80;58.40;;;;;;10382652;28;20518;-57
2022/07/25 16:54:26;;;;;;;15.50;2.90;;;24.80;57.70;;;;;;10408056;28;20025;-57
2022/07/25 16:59:27;;;;;;;9.40;2.42;;;24.80;58.00;;;;;;10393996;28;20030;-53
2022/07/25 17:04:27;;;;;;;10.32;2.97;;;24.70;58.50;;;;;;10383789;28;20033;-55
2022/07/25 17:09:28;;;;;;;12.63;2.83;;;24.70;58.90;;;;;;10383371;28;20030;-55
2022/07/25 17:14:29;;;;;;;8.93;2.38;;;24.70;58.70;;;;;;10382589;28;20048;-55
2022/07/25 17:19:31;;;;;;;10.95;2.17;;;24.70;58.20;;;;;;10382500;28;20030;-52
2022/07/25 17:24:32;;;;;;;9.70;1.98;;;24.70;58.30;;;;;;10373603;28;20033;-54
2022/07/25 17:29:33;;;;;;;6.10;1.65;;;24.70;58.20;;;;;;10389210;28;20038;-54
2022/07/25 17:34:33;;;;;;;4.38;2.22;;;24.60;58.20;;;;;;10368267;28;20045;-56
2022/07/25 17:39:34;;;;;;;5.45;1.40;;;24.60;56.00;;;;;;10368108;28;20053;-53
2022/07/25 17:44:35;;;;;;;8.20;2.03;;;24.70;56.20;;;;;;10367661;28;20042;-55
2022/07/25 17:49:36;;;;;;;7.03;1.63;;;24.70;57.20;;;;;;10388204;28;20095;-55
2022/07/25 17:54:38;;;;;;;9.88;2.17;;;24.60;57.30;;;;;;10404300;28;20028;-55
2022/07/25 17:59:39;;;;;;;8.45;1.98;;;24.60;57.50;;;;;;10367471;28;20042;-56
2022/07/25 18:04:40;;;;;;;9.20;1.63;;;24.60;57.80;;;;;;10381023;28;20087;-55
2022/07/25 18:09:41;;;;;;;10.30;1.48;;;24.60;57.50;;;;;;10366214;28;20473;-57
2022/07/25 18:14:41;;;;;;;3.45;1.20;;;24.60;56.50;;;;;;10388844;28;20029;-55
2022/07/25 18:19:42;;;;;;;5.50;1.60;;;24.60;57.00;;;;;;10384042;28;20018;-57
2022/07/25 18:24:43;;;;;;;5.63;1.75;;;24.60;56.50;;;;;;10380677;28;20033;-56
2022/07/25 18:29:43;;;;;;;5.28;1.38;;;24.50;56.80;;;;;;10375094;28;20125;-56
2022/07/25 18:34:44;;;;;;;6.43;1.70;;;24.60;57.20;;;;;;10382583;28;20117;-56
2022/07/25 18:39:45;;;;;;;4.20;1.30;;;24.60;57.40;;;;;;10382003;28;20087;-55
2022/07/25 18:44:46;;;;;;;5.80;1.50;;;24.60;57.70;;;;;;10399862;28;20102;-58
2022/07/25 18:49:46;;;;;;;5.80;1.20;;;24.60;57.50;;;;;;10387558;28;20053;-55
2022/07/25 18:54:47;;;;;;;7.15;1.98;;;24.60;58.00;;;;;;10381996;28;20036;-56
2022/07/25 18:59:48;;;;;;;5.18;1.38;;;24.60;58.10;;;;;;10379580;28;20448;-55
2022/07/25 19:04:48;;;;;;;4.38;1.20;;;24.60;58.30;;;;;;10387034;28;20029;-55
2022/07/25 19:09:49;;;;;;;6.30;1.58;;;24.60;58.50;;;;;;10388280;28;20026;-56
2022/07/25 19:14:50;;;;;;;3.85;1.30;;;24.60;58.60;;;;;;10388069;28;20075;-56
2022/07/25 19:19:51;;;;;;;5.90;1.52;;;24.60;58.80;;;;;;10392863;28;20029;-54
2022/07/25 19:24:52;;;;;;;5.22;1.48;;;24.60;58.90;;;;;;10386807;28;20026;-53
2022/07/25 19:29:53;;;;;;;3.15;1.60;;;24.60;59.00;;;;;;10391486;28;20404;-55
2022/07/25 19:34:54;;;;;;;4.70;1.13;;;24.60;59.00;;;;;;10373452;28;20030;-54
2022/07/25 19:39:55;;;;;;;5.38;1.33;;;24.60;59.10;;;;;;10381479;28;20109;-53
2022/07/25 19:44:55;;;;;;;13.55;1.52;;;24.50;59.00;;;;;;10384349;28;20125;-49
2022/07/25 19:49:56;;;;;;;5.20;1.60;;;24.50;59.00;;;;;;10397928;28;20406;-53
2022/07/25 19:54:58;;;;;;;5.57;1.17;;;24.50;59.00;;;;;;10396993;28;20080;-53
2022/07/25 19:59:59;;;;;;;4.03;1.55;;;24.50;59.00;;;;;;10388566;28;20738;-52
2022/07/25 20:05:00;;;;;;;2.92;1.05;;;24.50;59.10;;;;;;10370729;28;20120;-51
2022/07/25 20:10:01;;;;;;;2.35;0.80;;;24.50;59.20;;;;;;10370117;28;20597;-51
2022/07/25 20:15:02;;;;;;;4.28;1.08;;;24.50;59.10;;;;;;10370346;28;20076;-51
2022/07/25 20:20:05;;;;;;;3.67;1.15;;;24.50;59.20;;;;;;10391678;28;20080;-52
2022/07/25 20:25:09;;;;;;;2.40;1.05;;;24.50;59.20;;;;;;10401987;28;20044;-52
2022/07/25 20:30:11;;;;;;;2.78;0.90;;;24.50;59.30;;;;;;10402744;28;20080;-52
2022/07/25 20:35:12;;;;;;;2.28;1.08;;;24.50;59.30;;;;;;10369515;28;20052;-51
2022/07/25 20:40:14;;;;;;;3.03;1.00;;;24.50;59.30;;;;;;10391001;28;20044;-52
2022/07/25 20:45:15;;;;;;;1.60;1.00;;;24.50;59.40;;;;;;10396853;28;20033;-53
2022/07/25 20:50:16;;;;;;;2.70;1.13;;;24.50;59.50;;;;;;10408299;28;20545;-55
2022/07/25 20:55:17;;;;;;;1.98;1.20;;;24.50;59.50;;;;;;10398547;28;20392;-55
2022/07/25 21:00:18;;;;;;;3.42;1.30;;;24.50;59.50;;;;;;10408878;28;20029;-51
2022/07/25 21:05:20;;;;;;;2.05;0.98;;;24.50;59.50;;;;;;10386480;28;20025;-53
2022/07/25 21:10:21;;;;;;;2.80;1.17;;;24.40;59.50;;;;;;10390038;28;20033;-54
2022/07/25 21:15:22;;;;;;;3.30;0.98;;;24.40;59.50;;;;;;10409186;28;20481;-54
2022/07/25 21:20:23;;;;;;;3.63;1.30;;;24.40;59.50;;;;;;10384290;28;20036;-54
2022/07/25 21:25:24;;;;;;;2.22;1.00;;;24.40;59.70;;;;;;10371770;28;20621;-54
2022/07/25 21:30:25;;;;;;;2.80;1.23;;;24.40;59.80;;;;;;10381500;28;20382;-53
2022/07/25 21:35:25;;;;;;;3.05;1.38;;;24.40;59.70;;;;;;10368246;28;20466;-55
2022/07/25 21:40:27;;;;;;;2.58;1.00;;;24.40;59.80;;;;;;10391702;28;20087;-55
2022/07/25 21:45:27;;;;;;;4.72;2.13;;;24.40;59.80;;;;;;10408091;28;20724;-53
2022/07/25 21:50:37;;;;;;;3.63;1.35;;;24.40;59.80;;;;;;10381348;28;20060;-53
2022/07/25 21:55:39;;;;;;;1.75;1.00;;;24.40;59.90;;;;;;10367646;28;20058;-53
2022/07/25 22:00:40;;;;;;;4.45;1.73;;;24.40;59.90;;;;;;10367550;28;20040;-53
2022/07/25 22:05:40;;;;;;;3.15;1.20;;;24.40;60.00;;;;;;10379614;28;20465;-54
2022/07/25 22:10:41;;;;;;;2.85;0.90;;;24.40;60.00;;;;;;10367833;28;20495;-54
2022/07/25 22:15:43;;;;;;;3.90;1.50;;;24.30;60.10;;;;;;10379825;28;20413;-54
2022/07/25 22:20:44;;;;;;;1.85;1.10;;;24.30;60.10;;;;;;10406879;28;20842;-54
2022/07/25 22:25:44;;;;;;;3.20;1.80;;;24.30;60.20;;;;;;10368317;28;20108;-52
2022/07/25 22:30:46;;;;;;;2.80;0.88;;;24.30;60.30;;;;;;10385235;28;20093;-53
2022/07/25 22:35:47;;;;;;;2.72;1.58;;;24.30;60.20;;;;;;10395630;28;20064;-53
2022/07/25 22:40:48;;;;;;;2.35;1.20;;;24.30;60.20;;;;;;10402910;28;20049;-53
2022/07/25 22:45:50;;;;;;;3.05;1.10;;;24.30;60.30;;;;;;10413891;28;20473;-54
2022/07/25 22:50:51;;;;;;;4.22;1.33;;;24.30;60.30;;;;;;10413915;28;20121;-54
2022/07/25 22:55:51;;;;;;;3.50;1.35;;;24.30;60.40;;;;;;10386507;28;20357;-54
2022/07/25 23:00:52;;;;;;;2.95;1.05;;;24.30;60.50;;;;;;10387212;28;20033;-54
2022/07/25 23:05:53;;;;;;;2.78;1.30;;;24.30;60.50;;;;;;10373288;28;20022;-53
2022/07/25 23:10:54;;;;;;;2.22;1.02;;;24.30;60.50;;;;;;10376090;28;20461;-54
2022/07/25 23:15:55;;;;;;;3.42;1.00;;;24.30;60.50;;;;;;10386298;28;20495;-54
2022/07/25 23:20:56;;;;;;;2.95;1.58;;;24.30;60.60;;;;;;10390178;28;20036;-53
2022/07/25 23:25:56;;;;;;;1.83;1.00;;;24.30;60.60;;;;;;10384294;28;20037;-51
2022/07/25 23:30:57;;;;;;;2.60;1.27;;;24.30;60.70;;;;;;10411512;28;20626;-54
2022/07/25 23:35:58;;;;;;;2.60;1.15;;;24.30;60.70;;;;;;10413482;28;20129;-54
2022/07/25 23:40:58;;;;;;;2.45;1.20;;;24.30;60.70;;;;;;10403912;28;20038;-54
2022/07/25 23:45:59;;;;;;;3.60;1.38;;;24.30;60.80;;;;;;10370967;28;20022;-52
2022/07/25 23:51:00;;;;;;;4.00;1.27;;;24.30;60.80;;;;;;10371497;28;20038;-51
2022/07/25 23:56:01;;;;;;;1.73;1.10;;;24.30;60.80;;;;;;10370208;28;20084;-54
